Time;durP1;ratioP1;P1;durP2;ratioP2;P2;SDS_P1;SDS_P2;PMS_P1;PMS_P2;Temp;Humidity;BMP_temperature;BMP_pressure;BME280_temperature;BME280_humidity;BME280_pressure;Samples;Min_cycle;Max_cycle;Signal;HPM_P1;HPM_P2
2023/10/27 00:01:12;;;;;;;28.92;6.15;;;21.70;95.40;;;;;;6244903;23;20000;-78
2023/10/27 00:03:38;;;;;;;29.52;5.20;;;21.70;95.40;;;;;;6244653;23;20442;-78
2023/10/27 00:06:04;;;;;;;32.45;6.38;;;21.70;95.40;;;;;;6245134;23;20000;-77
2023/10/27 00:08:30;;;;;;;29.45;5.47;;;21.80;95.50;;;;;;6244660;23;20371;-78
2023/10/27 00:10:56;;;;;;;32.90;5.75;;;21.80;95.50;;;;;;6244209;22;20404;-78
2023/10/27 00:13:21;;;;;;;29.77;5.45;;;21.80;95.60;;;;;;6244447;23;20011;-78
2023/10/27 00:15:48;;;;;;;23.88;5.15;;;21.80;95.60;;;;;;6244209;23;20469;-78
2023/10/27 00:18:14;;;;;;;29.35;6.13;;;21.80;95.60;;;;;;6244331;23;20034;-78
2023/10/27 00:20:39;;;;;;;32.20;6.10;;;21.80;95.70;;;;;;6243790;23;20076;-78
2023/10/27 00:23:05;;;;;;;28.90;6.03;;;21.90;95.80;;;;;;6243287;23;20008;-77
2023/10/27 00:25:31;;;;;;;30.20;6.35;;;21.90;95.80;;;;;;6244774;23;20511;-77
2023/10/27 00:27:57;;;;;;;34.15;6.60;;;21.90;95.80;;;;;;6244547;23;20035;-78
2023/10/27 00:30:22;;;;;;;36.35;6.10;;;21.90;95.80;;;;;;6244103;23;20452;-78
2023/10/27 00:32:48;;;;;;;27.77;6.28;;;21.90;95.80;;;;;;6244307;23;20008;-77
2023/10/27 00:35:14;;;;;;;30.55;5.47;;;21.90;95.80;;;;;;6245856;22;20074;-78
2023/10/27 00:37:40;;;;;;;28.05;6.18;;;21.90;95.90;;;;;;6245703;23;20007;-77
2023/10/27 00:40:09;;;;;;;33.10;6.00;;;21.90;95.90;;;;;;6246299;23;20000;-77
2023/10/27 00:42:35;;;;;;;30.35;5.95;;;21.90;96.00;;;;;;6246839;23;20020;-77
2023/10/27 00:45:01;;;;;;;25.65;6.10;;;21.90;95.90;;;;;;6218828;23;20008;-77
2023/10/27 00:47:29;;;;;;;30.98;5.25;;;22.00;95.90;;;;;;6245873;23;20004;-77
2023/10/27 00:49:55;;;;;;;33.47;6.35;;;22.00;96.20;;;;;;6246158;23;20087;-77
2023/10/27 00:52:23;;;;;;;27.58;6.07;;;22.00;96.00;;;;;;6246303;23;20004;-78
2023/10/27 00:54:50;;;;;;;28.88;6.03;;;22.00;96.00;;;;;;6246218;23;20004;-76
2023/10/27 00:57:18;;;;;;;31.02;6.20;;;22.00;95.80;;;;;;6246316;23;20035;-79
2023/10/27 00:59:44;;;;;;;25.58;5.28;;;22.00;96.00;;;;;;6245921;23;20086;-78
2023/10/27 01:02:10;;;;;;;31.63;6.60;;;22.00;95.90;;;;;;6243786;23;20011;-76
2023/10/27 01:04:37;;;;;;;26.05;5.97;;;22.00;95.90;;;;;;6246088;23;20077;-77
2023/10/27 01:07:03;;;;;;;30.10;6.63;;;22.00;95.90;;;;;;6245600;23;20031;-77
2023/10/27 01:09:29;;;;;;;32.50;6.68;;;22.10;95.90;;;;;;6246090;23;20040;-77
2023/10/27 01:11:55;;;;;;;32.70;7.32;;;22.10;95.80;;;;;;6245728;23;20107;-77
2023/10/27 01:14:22;;;;;;;29.05;6.55;;;22.10;95.90;;;;;;6246030;23;20008;-77
2023/10/27 01:16:48;;;;;;;29.45;5.63;;;22.10;95.90;;;;;;6246036;23;20050;-77
2023/10/27 01:19:14;;;;;;;33.00;6.45;;;22.10;95.90;;;;;;6246244;23;20007;-78
2023/10/27 01:21:39;;;;;;;32.92;6.72;;;22.10;95.90;;;;;;6246935;23;20000;-77
2023/10/27 01:24:07;;;;;;;23.42;5.57;;;22.10;95.90;;;;;;6220715;23;20393;-77
2023/10/27 01:26:32;;;;;;;38.15;6.40;;;22.10;95.90;;;;;;6247219;23;20004;-78
2023/10/27 01:28:58;;;;;;;33.78;7.07;;;22.10;95.90;;;;;;6246238;23;20118;-78
2023/10/27 01:31:24;;;;;;;35.50;6.22;;;22.10;95.90;;;;;;6245817;23;20007;-77
2023/10/27 01:33:49;;;;;;;34.38;7.00;;;22.10;95.90;;;;;;6245900;23;20008;-78
2023/10/27 01:36:15;;;;;;;33.83;6.55;;;22.20;96.00;;;;;;6245635;23;19999;-77
2023/10/27 01:38:41;;;;;;;41.80;7.47;;;22.20;96.00;;;;;;6245917;23;20063;-77
2023/10/27 01:41:07;;;;;;;40.53;7.15;;;22.20;96.10;;;;;;6246396;23;20008;-76
2023/10/27 01:43:32;;;;;;;30.40;6.28;;;22.20;96.10;;;;;;6245221;23;20031;-78
2023/10/27 01:45:58;;;;;;;35.58;7.45;;;22.20;96.10;;;;;;6244955;23;20000;-77
2023/10/27 01:48:24;;;;;;;37.47;7.45;;;22.20;96.20;;;;;;6245400;23;20008;-77
2023/10/27 01:50:50;;;;;;;30.60;6.90;;;22.20;96.30;;;;;;6218644;23;20030;-77
2023/10/27 01:53:16;;;;;;;30.38;5.95;;;22.20;96.20;;;;;;6245296;23;20442;-77
2023/10/27 01:55:41;;;;;;;40.15;7.38;;;22.20;96.20;;;;;;6245386;23;20003;-77
2023/10/27 01:58:08;;;;;;;28.73;6.22;;;22.20;96.30;;;;;;6245665;23;20000;-77
2023/10/27 02:00:33;;;;;;;34.00;6.60;;;22.20;96.20;;;;;;6245719;23;20008;-78
2023/10/27 02:02:59;;;;;;;30.92;6.55;;;22.20;96.20;;;;;;6245088;23;20012;-78
2023/10/27 02:05:25;;;;;;;32.17;7.43;;;22.10;96.20;;;;;;6245675;23;20003;-77
2023/10/27 02:07:50;;;;;;;31.38;6.82;;;22.10;96.20;;;;;;6245224;23;20008;-78
2023/10/27 02:10:16;;;;;;;36.30;7.18;;;22.10;96.20;;;;;;6218113;23;20134;-78
2023/10/27 02:12:41;;;;;;;31.65;6.35;;;22.10;96.30;;;;;;6245125;23;20000;-77
2023/10/27 02:15:08;;;;;;;43.60;7.90;;;22.10;96.30;;;;;;6245127;23;20386;-76
2023/10/27 02:17:34;;;;;;;43.88;7.63;;;22.10;96.30;;;;;;6245433;23;20004;-77
2023/10/27 02:19:59;;;;;;;30.10;6.35;;;22.10;96.30;;;;;;6245325;23;20079;-78
2023/10/27 02:22:25;;;;;;;39.05;7.32;;;22.00;96.30;;;;;;6245755;23;20011;-78
2023/10/27 02:24:51;;;;;;;32.22;6.85;;;22.00;96.30;;;;;;6245211;23;20000;-78
2023/10/27 02:27:16;;;;;;;32.58;6.40;;;22.00;96.40;;;;;;6217979;23;20011;-78
2023/10/27 02:29:42;;;;;;;25.45;5.65;;;22.00;96.40;;;;;;6244886;23;20008;-77
2023/10/27 02:32:08;;;;;;;34.08;6.47;;;22.00;96.30;;;;;;6244870;23;20333;-77
2023/10/27 02:34:33;;;;;;;28.90;6.00;;;22.00;96.30;;;;;;6245224;23;20326;-77
2023/10/27 02:36:59;;;;;;;27.63;5.97;;;22.00;96.40;;;;;;6218118;23;20004;-78
2023/10/27 02:39:25;;;;;;;25.08;5.60;;;22.00;96.30;;;;;;6245028;23;20004;-77
2023/10/27 02:41:50;;;;;;;35.38;6.68;;;21.90;96.30;;;;;;6245021;23;20491;-78
2023/10/27 02:44:16;;;;;;;30.50;5.70;;;21.90;96.30;;;;;;6244967;23;20051;-77
2023/10/27 02:46:42;;;;;;;31.42;7.65;;;21.90;96.30;;;;;;6244878;23;20054;-77
2023/10/27 02:49:07;;;;;;;30.88;7.00;;;21.90;96.30;;;;;;6244953;23;20083;-77
2023/10/27 02:51:33;;;;;;;35.05;7.15;;;21.90;96.30;;;;;;6244820;23;20198;-78
2023/10/27 02:53:59;;;;;;;33.95;6.60;;;21.90;96.30;;;;;;6244721;23;20000;-77
2023/10/27 02:56:25;;;;;;;35.17;6.43;;;21.90;96.20;;;;;;6244312;23;19996;-78
2023/10/27 02:58:51;;;;;;;35.03;6.70;;;21.90;96.30;;;;;;6244959;23;20074;-77
2023/10/27 03:01:17;;;;;;;33.22;6.80;;;22.00;96.30;;;;;;6244297;23;20083;-78
2023/10/27 03:03:44;;;;;;;33.55;6.20;;;22.00;96.20;;;;;;6244567;23;20101;-77
2023/10/27 03:06:11;;;;;;;26.88;5.95;;;22.00;96.20;;;;;;6245227;23;20303;-77
2023/10/27 03:08:39;;;;;;;33.58;6.28;;;22.00;96.10;;;;;;6244911;23;20114;-78
2023/10/27 03:11:06;;;;;;;32.17;6.50;;;22.00;96.10;;;;;;6244570;23;20026;-77
2023/10/27 03:13:32;;;;;;;27.40;5.53;;;22.00;96.10;;;;;;6244670;23;20418;-79
2023/10/27 03:15:59;;;;;;;37.85;5.68;;;22.00;96.10;;;;;;6245144;23;20000;-77
2023/10/27 03:18:25;;;;;;;27.13;6.40;;;22.00;96.00;;;;;;6245261;23;20437;-77
2023/10/27 03:20:57;;;;;;;29.30;6.10;;;22.00;96.10;;;;;;6245237;23;20007;-77
2023/10/27 03:23:24;;;;;;;31.03;6.97;;;22.10;96.00;;;;;;6217787;23;20020;-78
2023/10/27 03:25:50;;;;;;;26.95;5.82;;;22.10;96.00;;;;;;6244455;23;20007;-78
2023/10/27 03:28:15;;;;;;;30.92;6.28;;;22.10;96.00;;;;;;6244722;23;20075;-77
2023/10/27 03:30:42;;;;;;;29.25;6.00;;;22.10;96.00;;;;;;6244518;23;20107;-78
2023/10/27 03:33:08;;;;;;;28.60;5.75;;;22.10;95.90;;;;;;6244561;23;20103;-77
2023/10/27 03:35:34;;;;;;;28.63;6.35;;;22.10;95.90;;;;;;6244326;23;20065;-77
2023/10/27 03:38:00;;;;;;;32.20;5.90;;;22.10;95.90;;;;;;6244474;23;20015;-77
2023/10/27 03:40:26;;;;;;;28.10;5.82;;;22.10;95.80;;;;;;6218504;23;20008;-78
2023/10/27 03:42:51;;;;;;;25.60;6.85;;;22.10;95.80;;;;;;6245767;23;20012;-78
2023/10/27 03:45:17;;;;;;;29.10;5.85;;;22.10;95.80;;;;;;6244535;23;20456;-78
2023/10/27 03:47:43;;;;;;;25.52;6.30;;;22.10;95.80;;;;;;6244432;23;20342;-78
2023/10/27 03:50:09;;;;;;;28.48;6.68;;;22.10;95.70;;;;;;6244202;23;20083;-77
2023/10/27 03:52:34;;;;;;;29.88;5.97;;;22.10;95.80;;;;;;6244320;23;20019;-78
2023/10/27 03:55:00;;;;;;;27.10;5.13;;;22.10;95.60;;;;;;6245790;23;19997;-77
2023/10/27 03:57:26;;;;;;;31.25;6.40;;;22.10;95.60;;;;;;6244872;23;20305;-78
2023/10/27 03:59:51;;;;;;;28.38;6.10;;;22.10;95.60;;;;;;6243983;23;20402;-77
2023/10/27 04:02:17;;;;;;;31.10;6.05;;;22.10;95.50;;;;;;6244326;23;20004;-77
2023/10/27 04:04:43;;;;;;;25.27;5.70;;;22.20;95.40;;;;;;6217421;23;20004;-78
2023/10/27 04:07:08;;;;;;;28.48;5.82;;;22.10;95.30;;;;;;6244431;23;20000;-77
2023/10/27 04:09:34;;;;;;;26.33;5.60;;;22.10;95.30;;;;;;6218447;23;20019;-78
2023/10/27 04:12:00;;;;;;;27.15;6.13;;;22.10;95.30;;;;;;6245776;23;20012;-77
2023/10/27 04:14:25;;;;;;;26.40;5.97;;;22.10;95.30;;;;;;6246691;23;19996;-78
2023/10/27 04:16:51;;;;;;;35.33;6.50;;;22.10;95.30;;;;;;6246685;23;20075;-77
2023/10/27 04:19:17;;;;;;;31.27;6.22;;;22.10;95.30;;;;;;6246425;23;20426;-78
2023/10/27 04:21:43;;;;;;;33.20;5.60;;;22.10;95.30;;;;;;6246570;23;20057;-77
2023/10/27 04:24:09;;;;;;;31.27;6.53;;;22.10;95.30;;;;;;6245946;23;20008;-77
2023/10/27 04:26:36;;;;;;;28.80;5.97;;;22.10;95.30;;;;;;6245815;23;20349;-77
2023/10/27 04:29:01;;;;;;;31.70;6.88;;;22.10;95.40;;;;;;6246051;23;20011;-78
2023/10/27 04:31:27;;;;;;;27.10;6.05;;;22.10;95.30;;;;;;6246123;23;20004;-78
2023/10/27 04:33:54;;;;;;;33.55;6.00;;;22.10;95.30;;;;;;6246113;23;20418;-78
2023/10/27 04:36:20;;;;;;;33.50;6.07;;;22.10;95.20;;;;;;6246611;23;20003;-78
2023/10/27 04:38:46;;;;;;;27.92;5.70;;;22.10;95.20;;;;;;6246478;23;20004;-79
2023/10/27 04:41:12;;;;;;;26.88;5.25;;;22.10;95.20;;;;;;6245906;23;20004;-77
2023/10/27 04:43:37;;;;;;;29.80;5.93;;;22.10;95.20;;;;;;6246131;23;20042;-78
2023/10/27 04:46:04;;;;;;;23.08;5.18;;;22.10;95.10;;;;;;6245865;23;20008;-77
2023/10/27 04:48:29;;;;;;;33.05;5.75;;;22.10;95.20;;;;;;6246101;23;20014;-79
2023/10/27 04:51:04;;;;;;;33.95;6.95;;;22.10;95.20;;;;;;6245728;23;20302;-78
2023/10/27 04:53:31;;;;;;;33.30;5.55;;;22.00;95.20;;;;;;6245664;23;20307;-78
2023/10/27 04:55:57;;;;;;;29.55;6.10;;;22.00;95.20;;;;;;6246540;23;20079;-80
2023/10/27 04:58:23;;;;;;;24.50;5.85;;;22.00;95.10;;;;;;6246132;23;20046;-79
2023/10/27 05:00:49;;;;;;;23.88;5.55;;;22.00;95.10;;;;;;6245927;23;20065;-79
2023/10/27 05:03:16;;;;;;;31.88;5.88;;;22.00;95.20;;;;;;6245935;23;20012;-78
2023/10/27 05:05:41;;;;;;;33.47;6.60;;;22.00;95.20;;;;;;6246304;23;20042;-77
2023/10/27 05:08:07;;;;;;;27.38;5.95;;;22.00;95.20;;;;;;6245894;23;20000;-78
2023/10/27 05:10:33;;;;;;;29.00;6.78;;;22.00;95.20;;;;;;6247108;23;20016;-79
2023/10/27 05:12:58;;;;;;;30.45;6.00;;;22.00;95.20;;;;;;6246009;23;20039;-77
2023/10/27 05:15:25;;;;;;;23.23;5.53;;;22.00;95.20;;;;;;6245866;23;20003;-77
2023/10/27 05:17:51;;;;;;;29.85;6.38;;;22.00;95.30;;;;;;6245922;23;20004;-78
2023/10/27 05:20:17;;;;;;;29.90;6.18;;;22.00;95.30;;;;;;6245878;23;20035;-78
2023/10/27 05:22:42;;;;;;;31.23;6.22;;;22.00;95.40;;;;;;6245863;23;20008;-78
2023/10/27 05:25:08;;;;;;;32.63;7.25;;;21.90;95.30;;;;;;6245463;23;20004;-77
2023/10/27 05:27:34;;;;;;;30.38;7.03;;;21.90;95.40;;;;;;6245562;23;20020;-78
2023/10/27 05:30:00;;;;;;;34.90;6.70;;;21.90;95.40;;;;;;6246034;23;19996;-79
2023/10/27 05:32:26;;;;;;;34.10;6.32;;;21.90;95.40;;;;;;6245481;23;20335;-78
2023/10/27 05:34:52;;;;;;;30.95;5.88;;;21.90;95.40;;;;;;6245553;23;20031;-78
2023/10/27 05:37:19;;;;;;;30.80;6.95;;;21.90;95.40;;;;;;6245805;23;20016;-78
2023/10/27 05:39:44;;;;;;;29.27;5.90;;;21.90;95.40;;;;;;6246104;23;20015;-79
2023/10/27 05:42:10;;;;;;;31.92;6.25;;;22.00;95.40;;;;;;6245605;23;19996;-78
2023/10/27 05:44:36;;;;;;;31.95;6.55;;;22.00;95.40;;;;;;6246703;23;20004;-80
2023/10/27 05:47:03;;;;;;;29.63;6.53;;;22.00;95.40;;;;;;6247938;23;20079;-73
2023/10/27 05:49:29;;;;;;;29.75;5.75;;;22.00;95.40;;;;;;6245636;23;20004;-76
2023/10/27 05:51:54;;;;;;;33.40;6.72;;;22.00;95.40;;;;;;6246059;23;20437;-76
2023/10/27 05:54:20;;;;;;;23.27;5.35;;;22.00;95.30;;;;;;6245465;23;20307;-69
2023/10/27 05:56:46;;;;;;;27.90;6.95;;;22.00;95.30;;;;;;6245829;23;20000;-77
2023/10/27 05:59:11;;;;;;;28.13;6.43;;;22.00;95.20;;;;;;6245576;23;20008;-76
2023/10/27 06:01:37;;;;;;;27.98;6.50;;;22.00;95.10;;;;;;6219274;23;20011;-77
2023/10/27 06:04:03;;;;;;;21.15;5.40;;;22.00;95.00;;;;;;6245657;23;20087;-77
2023/10/27 06:06:29;;;;;;;28.25;5.88;;;22.10;94.90;;;;;;6245443;23;19996;-79
2023/10/27 06:08:56;;;;;;;29.73;5.72;;;22.10;94.70;;;;;;6244932;23;20103;-77
2023/10/27 06:11:22;;;;;;;31.88;6.80;;;22.10;94.60;;;;;;6244931;23;20107;-76
2023/10/27 06:13:48;;;;;;;29.42;5.88;;;22.10;94.50;;;;;;6245546;23;20031;-77
2023/10/27 06:16:14;;;;;;;29.10;5.63;;;22.20;94.50;;;;;;6244990;23;20330;-74
2023/10/27 06:18:39;;;;;;;24.45;5.55;;;22.20;94.40;;;;;;6245150;23;20000;-77
2023/10/27 06:21:05;;;;;;;26.17;6.05;;;22.30;94.30;;;;;;6244798;23;20101;-76
2023/10/27 06:23:31;;;;;;;28.02;6.60;;;22.30;94.30;;;;;;6245251;23;20019;-76
2023/10/27 06:25:57;;;;;;;25.73;5.47;;;22.30;94.30;;;;;;6245499;23;20000;-76
2023/10/27 06:28:23;;;;;;;32.40;5.70;;;22.30;94.20;;;;;;6244983;23;20007;-77
2023/10/27 06:30:48;;;;;;;32.88;6.55;;;22.40;94.20;;;;;;6245410;23;20034;-77
2023/10/27 06:33:14;;;;;;;26.80;5.38;;;22.40;94.10;;;;;;6244468;23;20379;-76
2023/10/27 06:35:40;;;;;;;28.77;4.90;;;22.40;94.00;;;;;;6244051;23;20003;-76
2023/10/27 06:38:06;;;;;;;30.63;6.13;;;22.40;94.00;;;;;;6244644;23;20370;-77
2023/10/27 06:40:31;;;;;;;25.13;5.70;;;22.40;93.90;;;;;;6244852;23;20070;-75
2023/10/27 06:42:57;;;;;;;28.63;6.03;;;22.50;93.90;;;;;;6245101;23;20022;-76
2023/10/27 06:45:23;;;;;;;21.58;4.63;;;22.50;93.80;;;;;;6244895;23;20000;-75
2023/10/27 06:47:49;;;;;;;26.38;5.10;;;22.50;93.70;;;;;;6244573;23;20445;-76
2023/10/27 06:50:15;;;;;;;27.17;6.57;;;22.50;93.60;;;;;;6244027;23;20430;-74
2023/10/27 06:52:41;;;;;;;28.20;5.72;;;22.60;93.50;;;;;;6244758;23;20012;-75
2023/10/27 06:55:08;;;;;;;24.50;7.03;;;22.60;93.40;;;;;;6243747;23;20330;-72
2023/10/27 06:57:34;;;;;;;25.70;5.95;;;22.60;93.40;;;;;;6244207;23;20038;-74
2023/10/27 07:00:01;;;;;;;25.23;5.90;;;22.60;93.20;;;;;;6244167;23;20006;-74
2023/10/27 07:02:27;;;;;;;24.00;5.45;;;22.70;93.30;;;;;;6244666;23;20004;-70
2023/10/27 07:04:52;;;;;;;35.00;6.63;;;22.70;93.30;;;;;;6244434;23;20011;-72
2023/10/27 07:07:19;;;;;;;30.17;6.68;;;22.70;93.20;;;;;;6244133;23;20032;-72
2023/10/27 07:09:44;;;;;;;28.75;5.78;;;22.70;93.20;;;;;;6243859;23;20034;-74
2023/10/27 07:12:10;;;;;;;27.42;6.35;;;22.80;93.10;;;;;;6217478;23;20099;-72
2023/10/27 07:14:36;;;;;;;30.55;6.63;;;22.80;93.10;;;;;;6244676;23;20000;-75
2023/10/27 07:17:02;;;;;;;31.98;7.53;;;22.80;93.00;;;;;;6244505;23;20453;-78
2023/10/27 07:19:28;;;;;;;23.42;5.68;;;22.90;92.90;;;;;;6244633;23;20008;-73
2023/10/27 07:21:54;;;;;;;26.17;6.45;;;22.90;92.80;;;;;;6244544;23;20005;-75
2023/10/27 07:24:20;;;;;;;26.17;6.63;;;22.90;92.60;;;;;;6244713;23;20032;-74
2023/10/27 07:26:46;;;;;;;30.40;6.53;;;23.00;92.60;;;;;;6245221;23;20031;-75
2023/10/27 07:29:12;;;;;;;23.52;6.45;;;23.00;92.40;;;;;;6244946;23;20004;-75
2023/10/27 07:31:37;;;;;;;28.35;5.43;;;23.00;92.20;;;;;;6244553;23;19996;-75
2023/10/27 07:34:05;;;;;;;27.90;6.18;;;23.00;92.10;;;;;;6244173;23;20036;-74
2023/10/27 07:36:31;;;;;;;28.65;6.50;;;23.00;92.00;;;;;;6244461;23;20024;-75
2023/10/27 07:38:58;;;;;;;27.95;6.95;;;23.10;91.90;;;;;;6244696;23;20380;-75
2023/10/27 07:41:24;;;;;;;28.73;9.35;;;23.10;91.80;;;;;;6244644;23;20008;-75
2023/10/27 07:43:49;;;;;;;31.88;8.43;;;23.10;91.70;;;;;;6243722;23;20087;-74
2023/10/27 07:46:16;;;;;;;31.65;6.65;;;23.20;91.60;;;;;;6244341;23;20511;-73
2023/10/27 07:48:41;;;;;;;25.45;6.53;;;23.20;91.60;;;;;;6244127;23;20008;-75
2023/10/27 07:51:07;;;;;;;22.60;4.90;;;23.20;91.70;;;;;;6243920;23;19996;-75
2023/10/27 07:53:33;;;;;;;33.97;6.25;;;23.20;91.40;;;;;;6244328;23;20054;-74
2023/10/27 07:55:59;;;;;;;23.00;5.72;;;23.20;91.30;;;;;;6244514;23;20003;-75
2023/10/27 07:58:25;;;;;;;29.73;6.35;;;23.20;91.20;;;;;;6244624;23;20008;-75
2023/10/27 08:00:51;;;;;;;30.00;5.43;;;23.30;91.20;;;;;;6244226;23;20062;-75
2023/10/27 08:03:19;;;;;;;23.27;5.25;;;23.30;91.00;;;;;;6244158;23;20015;-76
2023/10/27 08:05:45;;;;;;;21.05;5.50;;;23.30;91.20;;;;;;6243975;23;20008;-76
2023/10/27 08:08:11;;;;;;;26.58;5.93;;;23.30;90.80;;;;;;6244237;23;20146;-74
2023/10/27 08:10:38;;;;;;;27.77;5.95;;;23.40;90.70;;;;;;6244187;23;20012;-75
2023/10/27 08:13:05;;;;;;;20.08;6.13;;;23.40;90.60;;;;;;6245011;23;20083;-74
2023/10/27 08:15:34;;;;;;;21.08;5.68;;;23.40;90.30;;;;;;6245736;23;20011;-74
2023/10/27 08:18:01;;;;;;;26.02;5.93;;;23.40;90.40;;;;;;6245418;23;20000;-75
2023/10/27 08:20:28;;;;;;;28.50;6.07;;;23.40;90.20;;;;;;6244287;23;20007;-75
2023/10/27 08:22:53;;;;;;;23.05;5.00;;;23.40;90.20;;;;;;6244110;23;20015;-74
2023/10/27 08:25:22;;;;;;;27.17;5.88;;;23.40;90.20;;;;;;6244054;23;20004;-75
2023/10/27 08:27:49;;;;;;;24.50;5.97;;;23.40;90.40;;;;;;6244366;23;20008;-75
2023/10/27 08:30:16;;;;;;;28.45;5.78;;;23.50;90.20;;;;;;6243058;23;20371;-75
2023/10/27 08:32:41;;;;;;;21.98;5.60;;;23.50;90.10;;;;;;6243354;23;20035;-76
2023/10/27 08:35:07;;;;;;;31.65;7.15;;;23.50;89.90;;;;;;6241898;23;20085;-75
2023/10/27 08:37:33;;;;;;;27.23;6.78;;;23.50;89.60;;;;;;6243416;23;20007;-75
2023/10/27 08:39:59;;;;;;;30.40;6.38;;;23.60;89.40;;;;;;6243524;23;20000;-75
2023/10/27 08:42:32;;;;;;;29.90;5.35;;;23.60;88.90;;;;;;6244628;23;20303;-74
2023/10/27 08:44:58;;;;;;;23.42;6.53;;;23.60;88.10;;;;;;6243976;23;20401;-75
2023/10/27 08:47:31;;;;;;;28.42;6.80;;;23.70;88.20;;;;;;6244229;23;20087;-75
2023/10/27 08:49:59;;;;;;;28.75;7.00;;;23.70;88.50;;;;;;6244270;23;20019;-76
2023/10/27 08:52:25;;;;;;;22.30;5.32;;;23.70;88.10;;;;;;6244671;23;20303;-76
2023/10/27 08:54:51;;;;;;;24.10;5.35;;;23.70;87.90;;;;;;6217616;23;20338;-76
2023/10/27 08:57:17;;;;;;;26.92;6.22;;;23.70;87.80;;;;;;6246165;23;19996;-75
2023/10/27 08:59:43;;;;;;;27.20;5.65;;;23.80;87.50;;;;;;6246223;23;20000;-76
2023/10/27 09:02:09;;;;;;;21.65;5.00;;;23.80;86.90;;;;;;6219148;23;20012;-75
2023/10/27 09:04:45;;;;;;;25.20;5.72;;;23.90;86.20;;;;;;6245813;23;20034;-75
2023/10/27 09:07:10;;;;;;;19.90;6.15;;;23.90;85.90;;;;;;6245501;23;20000;-75
2023/10/27 09:09:36;;;;;;;22.67;6.68;;;23.90;84.90;;;;;;6246263;23;20394;-75
2023/10/27 09:12:02;;;;;;;32.13;6.78;;;23.90;84.50;;;;;;6245148;23;20103;-75
2023/10/27 09:14:32;;;;;;;17.38;4.15;;;23.90;84.50;;;;;;6245573;23;20451;-76
2023/10/27 09:17:07;;;;;;;20.88;5.05;;;23.90;83.60;;;;;;6245769;23;20319;-78
2023/10/27 09:19:33;;;;;;;23.00;5.57;;;23.90;83.40;;;;;;6245970;23;20002;-78
2023/10/27 09:21:59;;;;;;;16.52;4.57;;;23.90;83.30;;;;;;6219131;23;20071;-77
2023/10/27 09:24:29;;;;;;;20.92;5.53;;;23.80;83.10;;;;;;6245448;23;20012;-75
2023/10/27 09:26:57;;;;;;;19.35;4.45;;;23.80;83.80;;;;;;6245865;23;20001;-77
2023/10/27 09:29:23;;;;;;;23.42;4.50;;;23.80;82.70;;;;;;6246172;23;20007;-76
2023/10/27 09:31:50;;;;;;;24.42;5.18;;;23.80;82.80;;;;;;6245997;23;20087;-76
2023/10/27 09:34:18;;;;;;;15.18;3.38;;;23.80;82.40;;;;;;6246009;23;20460;-77
2023/10/27 09:36:54;;;;;;;17.48;3.90;;;23.80;81.50;;;;;;6219398;23;20079;-75
2023/10/27 09:39:23;;;;;;;18.55;3.90;;;23.90;80.70;;;;;;6245560;23;20081;-78
2023/10/27 09:42:06;;;;;;;18.02;4.50;;;23.80;80.10;;;;;;6245691;23;20004;-77
2023/10/27 09:44:55;;;;;;;14.05;3.35;;;23.90;80.30;;;;;;6245475;23;20019;-77
2023/10/27 09:47:50;;;;;;;19.13;3.90;;;23.90;79.40;;;;;;6245300;23;20000;-76
2023/10/27 09:50:26;;;;;;;19.33;3.63;;;24.00;79.70;;;;;;6245340;23;20005;-77
2023/10/27 09:52:58;;;;;;;18.13;3.83;;;24.00;78.70;;;;;;6245044;23;20058;-78
2023/10/27 09:55:24;;;;;;;20.92;3.65;;;24.00;78.50;;;;;;6245445;23;19996;-77
2023/10/27 09:57:51;;;;;;;18.25;3.65;;;24.00;78.00;;;;;;6245215;23;20011;-79
2023/10/27 10:00:19;;;;;;;16.15;3.78;;;24.00;78.00;;;;;;6245831;23;20004;-78
2023/10/27 10:02:45;;;;;;;18.75;4.25;;;24.00;78.20;;;;;;6245368;23;20086;-78
2023/10/27 10:05:14;;;;;;;19.90;3.92;;;24.10;77.60;;;;;;6245479;23;20066;-77
2023/10/27 10:07:44;;;;;;;15.55;4.22;;;24.10;77.70;;;;;;6245094;23;20011;-78
2023/10/27 10:10:30;;;;;;;17.13;4.20;;;24.10;77.20;;;;;;6244797;23;20442;-76
2023/10/27 10:13:09;;;;;;;13.98;3.30;;;24.10;77.00;;;;;;6245617;23;20035;-74
2023/10/27 10:15:39;;;;;;;19.10;4.10;;;24.00;77.10;;;;;;6217910;23;20024;-73
2023/10/27 10:18:07;;;;;;;21.48;4.60;;;24.00;77.00;;;;;;6244610;23;20426;-74
2023/10/27 10:20:41;;;;;;;16.40;4.13;;;24.00;76.90;;;;;;6245415;23;20412;-81
2023/10/27 10:23:14;;;;;;;19.48;3.92;;;24.00;76.70;;;;;;6244761;23;20508;-79
2023/10/27 10:25:59;;;;;;;20.13;3.97;;;24.00;76.40;;;;;;6244811;23;19996;-75
2023/10/27 10:28:36;;;;;;;16.35;3.80;;;24.00;75.20;;;;;;6245421;23;20004;-75
2023/10/27 10:31:11;;;;;;;15.73;3.72;;;24.00;75.10;;;;;;6247526;23;20000;-77
2023/10/27 10:33:46;;;;;;;17.65;4.55;;;24.00;74.70;;;;;;6245624;23;19996;-78
2023/10/27 10:36:15;;;;;;;18.02;4.20;;;24.00;74.50;;;;;;6245092;23;20021;-75
2023/10/27 10:38:50;;;;;;;20.55;3.88;;;24.00;74.40;;;;;;6245563;23;20011;-74
2023/10/27 10:41:16;;;;;;;23.48;7.63;;;24.10;74.20;;;;;;6218704;23;20550;-76
2023/10/27 10:43:42;;;;;;;32.25;6.35;;;24.20;74.00;;;;;;6245164;23;20020;-78
2023/10/27 10:46:13;;;;;;;24.42;5.55;;;24.30;73.70;;;;;;6244724;23;20071;-75
2023/10/27 10:48:44;;;;;;;20.98;4.13;;;24.40;74.10;;;;;;6245351;23;20381;-75
2023/10/27 10:51:14;;;;;;;20.98;4.22;;;24.40;74.40;;;;;;6244783;23;20005;-75
2023/10/27 10:53:41;;;;;;;21.23;3.88;;;24.50;74.20;;;;;;6245166;23;21057;-77
2023/10/27 10:56:07;;;;;;;18.95;4.63;;;24.50;74.00;;;;;;6243874;23;20027;-73
2023/10/27 10:58:37;;;;;;;19.08;4.63;;;24.50;73.90;;;;;;6244540;23;20415;-74
2023/10/27 11:01:04;;;;;;;19.67;4.35;;;24.60;73.60;;;;;;6244456;23;20004;-75
2023/10/27 11:03:31;;;;;;;27.25;5.55;;;24.60;71.80;;;;;;6244514;23;20327;-75
2023/10/27 11:06:05;;;;;;;14.57;4.05;;;24.70;71.80;;;;;;6244623;23;20027;-75
2023/10/27 11:08:40;;;;;;;;;;;24.80;71.60;;;;;;6245635;23;20030;-76
2023/10/27 11:11:13;;;;;;;22.88;4.57;;;24.90;70.50;;;;;;6244207;23;19911;-77
2023/10/27 11:13:44;;;;;;;19.15;4.28;;;25.10;72.20;;;;;;6244975;23;20015;-77
2023/10/27 11:16:17;;;;;;;21.80;4.97;;;25.20;70.30;;;;;;6244656;23;20051;-77
2023/10/27 11:18:44;;;;;;;21.77;4.72;;;25.30;69.30;;;;;;6232126;23;20031;-75
2023/10/27 11:21:16;;;;;;;24.13;4.65;;;25.40;69.50;;;;;;6244015;23;20501;-78
2023/10/27 11:23:43;;;;;;;23.40;4.88;;;25.50;69.30;;;;;;6244756;23;20062;-78
2023/10/27 11:26:09;;;;;;;20.13;4.38;;;25.40;70.10;;;;;;6244640;23;20341;-77
2023/10/27 11:28:39;;;;;;;22.48;4.40;;;25.40;69.20;;;;;;6244993;23;20000;-78
2023/10/27 11:31:13;;;;;;;22.10;4.72;;;25.30;69.40;;;;;;6244513;23;19996;-78
2023/10/27 11:33:56;;;;;;;23.45;5.18;;;25.20;70.10;;;;;;6244768;23;20012;-77
2023/10/27 11:36:42;;;;;;;22.13;4.60;;;25.20;70.40;;;;;;6244768;23;20004;-78
2023/10/27 11:39:16;;;;;;;26.42;4.85;;;25.20;70.30;;;;;;6243141;23;20057;-78
2023/10/27 11:41:43;;;;;;;18.77;4.15;;;25.10;70.20;;;;;;6217775;23;20065;-75
2023/10/27 11:44:09;;;;;;;20.20;4.05;;;25.00;70.40;;;;;;6244614;23;20012;-75
2023/10/27 11:46:34;;;;;;;16.85;3.75;;;25.00;69.20;;;;;;6217507;23;20381;-76
2023/10/27 11:49:01;;;;;;;25.95;4.60;;;24.90;69.40;;;;;;6243504;23;20004;-75
2023/10/27 11:51:26;;;;;;;18.58;4.18;;;24.90;69.10;;;;;;6242628;23;19996;-75
2023/10/27 11:53:52;;;;;;;16.73;3.85;;;24.80;68.70;;;;;;6244479;23;20035;-75
2023/10/27 11:56:18;;;;;;;27.58;5.18;;;24.80;68.10;;;;;;6244597;23;20414;-74
2023/10/27 11:58:44;;;;;;;20.08;4.43;;;24.70;68.40;;;;;;6244683;23;20000;-75
2023/10/27 12:01:09;;;;;;;18.67;4.65;;;24.70;68.60;;;;;;6244875;23;20438;-75
2023/10/27 12:03:35;;;;;;;24.83;5.93;;;24.70;68.90;;;;;;6244545;23;20017;-75
2023/10/27 12:06:02;;;;;;;26.27;4.60;;;24.70;69.80;;;;;;6244383;23;20383;-74
2023/10/27 12:08:28;;;;;;;20.73;4.57;;;24.80;69.70;;;;;;6244569;23;20000;-75
2023/10/27 12:10:54;;;;;;;19.23;4.40;;;24.70;69.30;;;;;;6244162;23;20074;-75
2023/10/27 12:13:24;;;;;;;16.60;4.00;;;24.70;69.00;;;;;;6244781;23;20347;-76
2023/10/27 12:15:49;;;;;;;18.85;4.15;;;24.60;68.70;;;;;;6244535;23;20000;-76
2023/10/27 12:18:16;;;;;;;21.13;4.85;;;24.70;68.40;;;;;;6244390;23;20109;-75
2023/10/27 12:20:42;;;;;;;20.67;4.95;;;24.70;68.40;;;;;;6242649;23;20054;-74
2023/10/27 12:23:08;;;;;;;26.92;5.78;;;24.70;68.70;;;;;;6235781;23;20028;-75
2023/10/27 12:25:35;;;;;;;20.23;3.92;;;24.70;68.90;;;;;;6242819;23;20464;-74
2023/10/27 12:28:01;;;;;;;20.30;4.05;;;24.60;68.50;;;;;;6242315;23;19996;-75
2023/10/27 12:30:27;;;;;;;19.75;4.05;;;24.50;67.50;;;;;;6244265;23;20000;-75
2023/10/27 12:32:53;;;;;;;22.85;4.78;;;24.40;67.60;;;;;;6218795;23;20091;-75
2023/10/27 12:35:22;;;;;;;21.75;4.43;;;24.40;67.90;;;;;;6246028;23;20090;-75
2023/10/27 12:37:53;;;;;;;21.77;4.15;;;24.40;68.20;;;;;;6246250;23;20437;-75